Time;durP1;ratioP1;P1;durP2;ratioP2;P2;SDS_P1;SDS_P2;PMS_P1;PMS_P2;Temp;Humidity;BMP_temperature;BMP_pressure;BME280_temperature;BME280_humidity;BME280_pressure;Samples;Min_cycle;Max_cycle;Signal;HPM_P1;HPM_P2
2022/04/07 00:02:22;;;;;;;3.07;1.47;;;12.30;99.90;;;;;;5042899;28;20460;-86
2022/04/07 00:04:51;;;;;;;3.77;2.20;;;12.30;99.90;;;;;;5042394;28;20508;-86
2022/04/07 00:07:18;;;;;;;4.40;1.73;;;12.30;99.90;;;;;;5042878;28;20537;-86
2022/04/07 00:09:45;;;;;;;4.50;2.00;;;12.30;99.90;;;;;;5044447;28;20420;-87
2022/04/07 00:12:13;;;;;;;4.07;2.00;;;12.30;99.90;;;;;;5043185;28;20525;-87
2022/04/07 00:14:40;;;;;;;3.10;1.40;;;12.20;99.90;;;;;;5044032;28;20448;-87
2022/04/07 00:17:07;;;;;;;5.53;1.37;;;12.20;99.90;;;;;;5043251;28;20455;-87
2022/04/07 00:19:34;;;;;;;3.10;1.30;;;12.20;99.90;;;;;;5043016;28;20469;-86
2022/04/07 00:22:08;;;;;;;3.60;1.80;;;12.20;99.90;;;;;;5042446;28;20404;-88
2022/04/07 00:24:35;;;;;;;3.53;1.40;;;12.10;99.90;;;;;;5043151;28;20463;-85
2022/04/07 00:27:02;;;;;;;2.60;1.30;;;12.00;99.90;;;;;;5047781;28;20496;-87
2022/04/07 00:29:29;;;;;;;3.80;1.50;;;12.00;99.90;;;;;;5052320;28;20455;-86
2022/04/07 00:31:57;;;;;;;3.73;1.47;;;12.00;99.90;;;;;;5050204;28;20412;-87
2022/04/07 00:34:24;;;;;;;3.30;1.57;;;11.90;99.90;;;;;;5044896;28;20517;-89
2022/04/07 00:36:51;;;;;;;4.27;1.60;;;12.00;99.90;;;;;;5053037;28;20454;-86
2022/04/07 00:39:19;;;;;;;3.93;1.63;;;12.00;99.90;;;;;;5057494;28;20476;-88
2022/04/07 00:41:46;;;;;;;3.83;1.40;;;12.00;99.90;;;;;;5047608;28;20453;-86
2022/04/07 00:44:13;;;;;;;4.00;1.37;;;12.00;99.90;;;;;;5040009;28;20482;-88
2022/04/07 00:46:43;;;;;;;2.90;1.30;;;12.00;99.90;;;;;;5048896;28;20513;-88
2022/04/07 00:49:10;;;;;;;3.07;1.40;;;12.00;99.90;;;;;;5051188;28;20445;-88
2022/04/07 00:51:40;;;;;;;4.00;1.37;;;12.10;99.90;;;;;;5050251;28;20451;-88
2022/04/07 00:54:08;;;;;;;2.73;1.20;;;12.10;99.90;;;;;;5049044;28;20485;-88
2022/04/07 00:56:37;;;;;;;2.90;1.00;;;12.20;99.90;;;;;;5049928;28;20544;-87
2022/04/07 00:59:06;;;;;;;3.17;1.30;;;12.20;99.90;;;;;;5058081;28;20412;-87
2022/04/07 01:01:33;;;;;;;3.00;1.20;;;12.30;99.90;;;;;;5061202;28;20457;-87
2022/04/07 01:04:00;;;;;;;2.70;1.23;;;12.30;99.90;;;;;;5060399;28;20465;-87
2022/04/07 01:06:27;;;;;;;3.80;1.03;;;12.20;99.90;;;;;;5050297;28;20475;-85
2022/04/07 01:08:55;;;;;;;2.90;1.20;;;12.30;99.90;;;;;;5040585;28;20412;-86
2022/04/07 01:11:25;;;;;;;2.70;1.10;;;12.20;99.90;;;;;;5040672;28;20489;-86
2022/04/07 01:13:53;;;;;;;3.47;1.57;;;12.20;99.90;;;;;;5042333;28;20917;-86
2022/04/07 01:16:26;;;;;;;2.40;1.00;;;12.20;99.90;;;;;;5049523;28;20456;-87
2022/04/07 01:18:53;;;;;;;2.97;1.07;;;12.20;99.90;;;;;;5051087;28;20438;-87
2022/04/07 01:21:21;;;;;;;2.70;1.20;;;12.10;99.90;;;;;;5049044;28;20930;-88
2022/04/07 01:24:00;;;;;;;3.40;1.17;;;12.10;99.90;;;;;;5052160;28;20616;-86
2022/04/07 01:26:28;;;;;;;2.53;1.00;;;12.10;99.90;;;;;;5053418;28;20495;-88
2022/04/07 01:28:55;;;;;;;3.03;1.40;;;12.10;99.90;;;;;;5053054;28;20464;-88
2022/04/07 01:31:22;;;;;;;3.10;1.20;;;12.10;99.90;;;;;;5049605;28;20442;-87
2022/04/07 01:33:50;;;;;;;3.90;1.20;;;12.10;99.90;;;;;;5047521;28;20475;-87
2022/04/07 01:36:17;;;;;;;3.30;1.40;;;12.00;99.90;;;;;;5048010;28;20480;-86
2022/04/07 01:38:45;;;;;;;2.90;1.03;;;12.00;99.90;;;;;;5054050;28;20460;-89
2022/04/07 01:41:13;;;;;;;2.67;1.10;;;12.00;99.90;;;;;;5054250;28;20449;-89
2022/04/07 01:43:42;;;;;;;3.00;1.40;;;11.90;99.90;;;;;;5055069;28;20449;-89
2022/04/07 01:46:12;;;;;;;4.10;1.57;;;11.90;99.90;;;;;;5056138;28;20481;-89
2022/04/07 01:48:39;;;;;;;2.83;1.10;;;11.90;99.90;;;;;;5058965;28;20450;-87
2022/04/07 01:51:08;;;;;;;3.17;1.30;;;11.90;99.90;;;;;;5052304;28;20451;-88
2022/04/07 01:53:35;;;;;;;3.00;1.27;;;11.80;99.90;;;;;;5048560;28;20463;-88
2022/04/07 01:56:04;;;;;;;2.60;0.97;;;11.80;99.90;;;;;;5048442;28;21030;-88
2022/04/07 01:58:32;;;;;;;2.83;1.10;;;11.90;99.90;;;;;;5047940;28;20457;-88
2022/04/07 02:01:00;;;;;;;3.00;1.00;;;11.90;99.90;;;;;;5047061;28;20462;-87
2022/04/07 02:03:28;;;;;;;2.80;1.23;;;11.90;99.90;;;;;;5056447;28;20521;-85
2022/04/07 02:05:55;;;;;;;2.90;1.27;;;11.90;99.90;;;;;;5059972;28;20481;-88
2022/04/07 02:08:22;;;;;;;4.97;1.20;;;11.90;99.90;;;;;;5056777;28;20457;-87
2022/04/07 02:10:48;;;;;;;2.80;1.20;;;11.90;99.90;;;;;;5046960;28;20462;-88
2022/04/07 02:13:15;;;;;;;3.77;1.47;;;11.80;99.90;;;;;;5046102;28;20481;-87
2022/04/07 02:15:42;;;;;;;2.83;1.10;;;11.80;99.90;;;;;;5045900;28;20502;-88
2022/04/07 02:18:11;;;;;;;2.83;1.20;;;11.80;99.90;;;;;;5044946;28;20465;-86
2022/04/07 02:20:37;;;;;;;3.17;1.27;;;11.80;99.90;;;;;;5045663;28;20531;-86
2022/04/07 02:23:04;;;;;;;3.23;1.20;;;11.80;99.90;;;;;;5059651;28;20446;-88
2022/04/07 02:25:31;;;;;;;3.70;1.33;;;11.70;99.90;;;;;;5055362;28;20440;-87
2022/04/07 02:27:59;;;;;;;2.83;1.20;;;11.70;99.90;;;;;;5052157;28;20521;-87
2022/04/07 02:30:25;;;;;;;4.13;1.60;;;11.70;99.90;;;;;;5051364;28;20460;-88
2022/04/07 02:32:52;;;;;;;3.30;1.23;;;11.70;99.90;;;;;;5048241;28;20461;-88
2022/04/07 02:35:21;;;;;;;2.87;1.40;;;11.70;99.90;;;;;;5047359;28;20448;-88
2022/04/07 02:37:48;;;;;;;5.00;1.37;;;11.70;99.90;;;;;;5047436;28;20460;-87
2022/04/07 02:40:15;;;;;;;3.97;1.80;;;11.70;99.90;;;;;;5046686;28;20822;-88
2022/04/07 02:42:42;;;;;;;3.10;1.20;;;11.70;99.90;;;;;;5045833;28;20580;-87
2022/04/07 02:45:10;;;;;;;3.33;1.57;;;11.70;99.90;;;;;;5045532;28;20948;-87
2022/04/07 02:47:39;;;;;;;3.37;1.43;;;11.70;99.90;;;;;;5045647;28;20486;-86
2022/04/07 02:50:07;;;;;;;3.70;0.80;;;11.60;99.90;;;;;;5045608;28;20549;-87
2022/04/07 02:52:36;;;;;;;2.60;0.90;;;11.70;99.90;;;;;;5044711;28;20917;-88
2022/04/07 02:55:04;;;;;;;3.77;1.43;;;11.70;99.90;;;;;;5052781;28;20537;-89
2022/04/07 02:57:31;;;;;;;4.40;1.30;;;11.70;99.90;;;;;;5052682;28;20424;-88
2022/04/07 02:59:59;;;;;;;3.13;1.23;;;11.70;99.90;;;;;;5049714;28;20449;-87
2022/04/07 03:02:26;;;;;;;3.70;1.00;;;11.70;99.90;;;;;;5047006;28;20460;-86
2022/04/07 03:04:53;;;;;;;3.60;1.67;;;11.70;99.90;;;;;;5047533;28;20823;-87
2022/04/07 03:07:20;;;;;;;3.33;1.00;;;11.70;99.90;;;;;;5054411;28;20481;-87
2022/04/07 03:09:49;;;;;;;2.70;1.10;;;11.70;99.90;;;;;;5054052;28;20455;-87
2022/04/07 03:12:16;;;;;;;3.03;1.30;;;11.80;99.90;;;;;;5056057;28;20482;-87
2022/04/07 03:14:43;;;;;;;3.53;1.20;;;11.70;99.90;;;;;;5048488;28;20552;-87
2022/04/07 03:17:10;;;;;;;3.50;1.03;;;11.60;99.90;;;;;;5049593;28;20428;-87
2022/04/07 03:19:37;;;;;;;3.87;1.07;;;11.60;99.90;;;;;;5054346;28;20477;-88
2022/04/07 03:22:04;;;;;;;2.77;1.00;;;11.50;99.90;;;;;;5053446;28;20456;-88
2022/04/07 03:24:31;;;;;;;2.90;1.10;;;11.50;99.90;;;;;;5050149;28;20459;-88
2022/04/07 03:27:04;;;;;;;2.50;0.87;;;11.50;99.90;;;;;;5049657;28;20478;-87
2022/04/07 03:29:31;;;;;;;2.70;0.90;;;11.50;99.90;;;;;;5058394;28;20430;-87
2022/04/07 03:31:58;;;;;;;3.03;1.17;;;11.60;99.90;;;;;;5055039;28;20461;-88
2022/04/07 03:34:25;;;;;;;3.67;1.20;;;11.60;99.90;;;;;;5046839;28;20470;-88
2022/04/07 03:36:52;;;;;;;3.70;0.80;;;11.50;99.90;;;;;;5048593;28;20454;-88
2022/04/07 03:39:19;;;;;;;2.70;1.00;;;11.60;99.90;;;;;;5048582;28;20428;-88
2022/04/07 03:41:46;;;;;;;2.87;0.90;;;11.60;99.90;;;;;;5054355;28;20442;-86
2022/04/07 03:44:14;;;;;;;2.37;0.93;;;11.60;99.90;;;;;;5053657;28;20453;-88
2022/04/07 03:46:43;;;;;;;2.80;1.00;;;11.50;99.90;;;;;;5055962;28;20459;-88
2022/04/07 03:49:10;;;;;;;2.60;0.73;;;11.60;99.90;;;;;;5049956;28;20416;-88
2022/04/07 03:51:37;;;;;;;2.63;1.00;;;11.60;99.90;;;;;;5054204;28;20897;-88
2022/04/07 03:54:04;;;;;;;2.43;0.93;;;11.70;99.90;;;;;;5053180;28;21010;-88
2022/04/07 03:56:31;;;;;;;2.93;1.10;;;11.70;99.90;;;;;;5048936;28;20409;-87
2022/04/07 03:58:58;;;;;;;2.50;1.00;;;11.60;99.90;;;;;;5046864;28;20973;-87
2022/04/07 04:01:30;;;;;;;2.50;0.87;;;11.50;99.90;;;;;;5048358;28;20424;-86
2022/04/07 04:03:57;;;;;;;2.80;1.30;;;11.50;99.90;;;;;;5045871;28;20473;-85
2022/04/07 04:06:24;;;;;;;2.50;0.80;;;11.40;99.90;;;;;;5046523;28;20432;-86
2022/04/07 04:08:51;;;;;;;3.20;1.03;;;11.40;99.90;;;;;;5042774;28;20473;-88
2022/04/07 04:11:18;;;;;;;3.67;1.23;;;11.50;99.90;;;;;;5042607;28;20424;-88
2022/04/07 04:13:46;;;;;;;2.60;1.00;;;11.40;99.90;;;;;;5045066;28;20469;-87
2022/04/07 04:16:17;;;;;;;5.70;1.27;;;11.50;99.90;;;;;;5055074;28;20432;-86
2022/04/07 04:18:45;;;;;;;3.73;1.10;;;11.50;99.90;;;;;;5050962;28;20420;-88
2022/04/07 04:21:12;;;;;;;3.80;1.00;;;11.50;99.90;;;;;;5044903;28;20526;-86
2022/04/07 04:23:40;;;;;;;3.77;1.53;;;11.50;99.90;;;;;;5045275;28;20461;-87
2022/04/07 04:26:07;;;;;;;3.10;1.33;;;11.50;99.90;;;;;;5044055;28;20453;-87
2022/04/07 04:28:34;;;;;;;4.20;0.90;;;11.50;99.90;;;;;;5041068;28;20496;-87
2022/04/07 04:31:01;;;;;;;3.00;1.13;;;11.40;99.90;;;;;;5040358;28;20424;-86
2022/04/07 04:33:28;;;;;;;3.67;1.10;;;11.40;99.90;;;;;;5039968;28;20508;-88
2022/04/07 04:35:58;;;;;;;3.40;1.20;;;11.50;99.90;;;;;;5052227;28;20511;-88
2022/04/07 04:38:24;;;;;;;3.17;1.20;;;11.50;99.90;;;;;;5047899;28;20446;-87
2022/04/07 04:40:54;;;;;;;3.13;1.27;;;11.50;99.90;;;;;;5038670;28;20492;-85
2022/04/07 04:43:21;;;;;;;3.23;1.00;;;11.50;99.90;;;;;;5037546;28;20461;-87
2022/04/07 04:45:48;;;;;;;2.83;0.80;;;11.50;99.90;;;;;;5040005;28;20628;-88
2022/04/07 04:48:20;;;;;;;2.73;0.93;;;11.50;99.90;;;;;;5038494;28;20456;-86
2022/04/07 04:50:47;;;;;;;3.03;1.10;;;11.50;99.90;;;;;;5038485;28;20433;-85
2022/04/07 04:53:15;;;;;;;3.90;1.30;;;11.50;99.90;;;;;;5047725;28;20429;-85
2022/04/07 06:38:43;;;;;;;2.77;0.83;;;12.50;99.90;;;;;;5271576;22;20485;-83
2022/04/07 07:48:54;;;;;;;8.23;0.70;;;13.60;99.90;;;;;;5211427;22;20493;-85
2022/04/07 07:52:17;;;;;;;3.30;0.73;;;13.60;99.90;;;;;;5074585;28;20426;-86
2022/04/07 08:07:29;;;;;;;3.17;1.00;;;13.70;99.90;;;;;;5040336;28;20467;-86
2022/04/07 08:13:52;;;;;;;4.00;0.70;;;13.80;99.90;;;;;;5019112;28;20446;-85
2022/04/07 08:19:40;;;;;;;2.40;0.73;;;13.80;99.90;;;;;;5092627;28;20431;-86
2022/04/07 08:22:20;;;;;;;2.90;0.73;;;13.90;99.90;;;;;;5099112;28;20433;-87
2022/04/07 08:24:58;;;;;;;3.27;0.87;;;13.90;99.90;;;;;;5099224;28;20450;-85
2022/04/07 08:27:46;;;;;;;2.70;0.80;;;14.00;99.90;;;;;;5099638;28;20853;-87
2022/04/07 08:33:42;;;;;;;3.60;1.37;;;14.00;99.90;;;;;;5092225;28;20443;-85
2022/04/07 09:18:42;;;;;;;2.30;0.50;;;14.50;99.90;;;;;;5215214;22;20527;-84
2022/04/07 10:30:02;;;;;;;;;;;;;;;;;;;;;
2022/04/07 10:33:35;;;;;;;2.70;0.77;;;15.30;99.90;;;;;;4923548;29;20459;-85
2022/04/07 10:43:38;;;;;;;2.80;0.67;;;15.30;99.90;;;;;;4932654;29;20454;-86
2022/04/07 10:53:50;;;;;;;3.57;0.80;;;15.30;99.90;;;;;;4984745;28;20422;-85
2022/04/07 11:00:20;;;;;;;3.07;0.60;;;15.40;99.90;;;;;;5003791;22;20452;-87
2022/04/07 11:03:14;;;;;;;2.40;0.70;;;15.50;99.90;;;;;;5104141;28;20422;-88
2022/04/07 11:05:59;;;;;;;3.90;1.20;;;15.50;99.90;;;;;;5115527;28;20402;-87
2022/04/07 11:08:26;;;;;;;3.13;0.60;;;15.60;99.90;;;;;;5114167;28;20498;-88
2022/04/07 11:11:03;;;;;;;3.53;0.70;;;15.60;99.90;;;;;;5110675;28;20463;-88
2022/04/07 11:13:51;;;;;;;2.73;0.53;;;15.50;99.90;;;;;;5108412;28;20550;-88
2022/04/07 11:16:36;;;;;;;3.20;0.60;;;15.50;99.90;;;;;;5102777;28;20410;-88
2022/04/07 11:19:21;;;;;;;3.20;0.77;;;15.40;99.90;;;;;;5103783;28;20445;-87
2022/04/07 11:21:53;;;;;;;2.57;0.77;;;15.50;99.90;;;;;;5111986;28;20521;-87
2022/04/07 11:24:28;;;;;;;2.50;0.60;;;15.50;99.90;;;;;;5116760;28;20438;-87
2022/04/07 11:27:36;;;;;;;3.00;0.90;;;15.40;99.90;;;;;;5116346;28;20450;-88
2022/04/07 11:30:18;;;;;;;3.53;0.80;;;15.40;99.90;;;;;;5113569;28;20448;-87
2022/04/07 11:33:29;;;;;;;2.30;0.50;;;15.60;99.90;;;;;;5107568;28;20923;-88
2022/04/07 11:36:33;;;;;;;2.90;0.60;;;15.70;99.90;;;;;;5095998;28;20465;-88
2022/04/07 11:39:04;;;;;;;2.40;0.70;;;15.70;99.90;;;;;;5105870;28;20417;-88
2022/04/07 11:41:41;;;;;;;2.63;0.70;;;15.70;99.90;;;;;;5114695;28;20419;-88
2022/04/07 11:44:20;;;;;;;2.80;0.80;;;15.60;99.90;;;;;;5106317;28;20443;-88
2022/04/07 11:46:48;;;;;;;2.73;0.87;;;15.60;99.90;;;;;;5106906;28;20456;-88
2022/04/07 11:49:18;;;;;;;2.20;0.53;;;15.70;99.90;;;;;;5104753;28;20498;-88
2022/04/07 11:51:47;;;;;;;3.10;0.90;;;15.70;99.90;;;;;;5107286;28;20445;-88
2022/04/07 11:54:17;;;;;;;3.43;1.27;;;15.70;99.90;;;;;;5108528;28;20501;-88
2022/04/07 11:56:47;;;;;;;4.10;0.60;;;15.80;99.90;;;;;;5111294;28;20453;-88
2022/04/07 11:59:15;;;;;;;2.40;0.63;;;15.90;99.90;;;;;;5109268;28;20521;-87
2022/04/07 12:01:50;;;;;;;4.00;0.80;;;15.90;99.90;;;;;;5111000;28;20392;-88
2022/04/07 12:04:18;;;;;;;3.13;0.60;;;15.80;99.90;;;;;;5107479;28;20405;-87
2022/04/07 12:06:46;;;;;;;2.73;0.70;;;15.70;99.90;;;;;;5104173;28;20426;-89
2022/04/07 12:09:14;;;;;;;5.10;1.00;;;15.50;99.90;;;;;;5099600;28;20469;-88
2022/04/07 12:11:47;;;;;;;2.70;0.50;;;15.50;99.90;;;;;;5099127;28;20455;-88
2022/04/07 12:14:17;;;;;;;2.40;0.50;;;15.60;99.90;;;;;;5102995;28;20442;-89
2022/04/07 12:16:52;;;;;;;2.53;0.70;;;15.60;99.90;;;;;;5098964;28;20490;-88
2022/04/07 12:19:51;;;;;;;5.23;0.60;;;15.60;99.90;;;;;;5115497;28;20478;-88
2022/04/07 12:22:29;;;;;;;3.00;0.67;;;15.70;99.90;;;;;;5104104;28;20414;-88
2022/04/07 12:25:04;;;;;;;2.40;0.53;;;15.60;99.90;;;;;;5100887;28;20437;-88
2022/04/07 12:27:43;;;;;;;2.93;0.70;;;15.50;99.90;;;;;;5103665;28;20511;-89
2022/04/07 12:30:17;;;;;;;2.90;0.70;;;15.20;99.90;;;;;;5098544;28;20487;-89
2022/04/07 12:32:52;;;;;;;5.27;0.87;;;15.20;99.90;;;;;;5097663;28;20427;-89
2022/04/07 12:35:21;;;;;;;2.30;0.60;;;15.20;99.90;;;;;;5099492;28;20464;-88
2022/04/07 12:37:48;;;;;;;5.33;0.73;;;15.20;99.90;;;;;;5113250;28;20521;-87
2022/04/07 12:40:30;;;;;;;2.73;0.77;;;15.20;99.90;;;;;;5115633;28;20483;-87
2022/04/07 12:43:00;;;;;;;3.40;0.67;;;15.20;99.90;;;;;;5115239;28;20529;-88
2022/04/07 12:45:28;;;;;;;2.50;0.73;;;15.20;99.90;;;;;;5106294;28;20477;-87
2022/04/07 12:48:10;;;;;;;2.40;0.70;;;15.10;99.90;;;;;;5103486;28;20490;-87
2022/04/07 12:50:41;;;;;;;2.53;0.77;;;15.00;99.90;;;;;;5103353;28;20437;-88
2022/04/07 12:53:30;;;;;;;4.10;1.07;;;15.00;99.90;;;;;;5102644;28;20527;-88
2022/04/07 12:56:01;;;;;;;2.67;0.77;;;15.10;99.90;;;;;;5100678;28;20477;-88
2022/04/07 12:58:31;;;;;;;2.53;0.70;;;15.10;99.90;;;;;;5106239;28;20416;-86
2022/04/07 13:01:01;;;;;;;2.40;0.60;;;15.00;99.90;;;;;;5120621;28;20506;-87
2022/04/07 13:03:57;;;;;;;3.60;0.70;;;15.10;99.90;;;;;;5120714;28;20470;-87
2022/04/07 13:06:25;;;;;;;2.20;0.50;;;15.10;99.90;;;;;;5115414;28;20429;-88
2022/04/07 13:08:55;;;;;;;2.50;0.77;;;15.00;99.90;;;;;;5101760;28;20464;-88
2022/04/07 13:11:33;;;;;;;2.60;0.60;;;15.00;99.90;;;;;;5101084;28;20466;-88
2022/04/07 13:14:01;;;;;;;2.70;0.70;;;15.10;99.90;;;;;;5108096;28;20437;-88
2022/04/07 13:16:40;;;;;;;2.60;0.70;;;15.20;99.90;;;;;;5110836;28;20441;-88
2022/04/07 13:19:09;;;;;;;2.50;0.50;;;15.20;99.90;;;;;;5101485;28;20469;-87
2022/04/07 13:21:42;;;;;;;2.80;0.60;;;15.20;99.90;;;;;;5101394;28;20455;-87
2022/04/07 13:24:16;;;;;;;4.83;0.67;;;15.30;99.90;;;;;;5100915;28;20435;-87
2022/04/07 13:26:51;;;;;;;2.30;0.60;;;15.20;99.90;;;;;;5101284;28;20450;-88
2022/04/07 13:29:18;;;;;;;2.57;0.60;;;15.30;99.90;;;;;;5102234;28;20483;-88
2022/04/07 13:31:51;;;;;;;5.27;0.90;;;15.20;99.90;;;;;;5100908;28;20429;-88
2022/04/07 13:34:22;;;;;;;2.20;0.50;;;15.20;99.90;;;;;;5101681;28;20463;-88
2022/04/07 13:36:50;;;;;;;2.90;0.80;;;15.30;99.90;;;;;;5100072;28;20446;-88
2022/04/07 13:39:17;;;;;;;2.90;0.90;;;15.30;99.90;;;;;;5100408;28;20506;-88
2022/04/07 13:41:45;;;;;;;3.50;0.80;;;15.20;99.90;;;;;;5100881;28;20843;-88
2022/04/07 13:44:12;;;;;;;3.10;1.00;;;15.30;99.90;;;;;;5099960;28;20427;-87
2022/04/07 13:46:42;;;;;;;3.10;1.17;;;15.40;99.90;;;;;;5101607;28;20507;-88
2022/04/07 13:49:09;;;;;;;2.20;0.50;;;15.40;99.90;;;;;;5102067;28;20574;-87
2022/04/07 13:51:42;;;;;;;2.50;0.80;;;15.50;99.90;;;;;;5099894;28;20454;-88
2022/04/07 13:54:13;;;;;;;2.83;0.60;;;15.60;99.90;;;;;;5102661;28;20459;-87
2022/04/07 13:56:40;;;;;;;2.30;0.60;;;15.70;99.90;;;;;;5105349;28;20453;-87
2022/04/07 13:59:07;;;;;;;3.40;0.60;;;15.70;99.90;;;;;;5103943;28;20510;-88
2022/04/07 14:01:39;;;;;;;2.40;0.60;;;15.60;99.90;;;;;;5107677;28;20514;-88
2022/04/07 14:04:06;;;;;;;3.30;0.60;;;15.60;99.90;;;;;;5110504;28;20415;-88
2022/04/07 14:06:33;;;;;;;3.47;0.60;;;15.50;99.90;;;;;;5113338;28;20425;-88
2022/04/07 14:09:03;;;;;;;2.90;0.77;;;15.50;99.90;;;;;;5117483;28;20478;-86
2022/04/07 14:11:37;;;;;;;2.93;0.87;;;15.40;99.90;;;;;;5118841;28;20442;-87
2022/04/07 14:14:04;;;;;;;3.43;0.90;;;15.50;99.90;;;;;;5114741;28;20442;-86
2022/04/07 14:16:31;;;;;;;3.70;0.77;;;15.60;99.90;;;;;;5108971;28;20534;-87
2022/04/07 14:19:02;;;;;;;2.80;0.70;;;15.50;99.90;;;;;;5114007;28;20410;-87
2022/04/07 14:21:29;;;;;;;2.83;0.60;;;15.50;99.90;;;;;;5113704;28;20432;-87
2022/04/07 14:23:56;;;;;;;2.63;0.70;;;15.60;99.90;;;;;;5107081;28;20443;-87
2022/04/07 14:26:28;;;;;;;4.03;0.70;;;15.70;99.90;;;;;;5101092;28;20502;-88
2022/04/07 14:29:12;;;;;;;2.87;0.73;;;15.80;99.90;;;;;;5102239;28;20535;-88
2022/04/07 14:31:39;;;;;;;3.50;0.90;;;15.90;99.90;;;;;;5113773;28;20394;-89
2022/04/07 14:34:06;;;;;;;4.93;0.70;;;16.10;99.90;;;;;;5103242;28;20470;-89
2022/04/07 14:36:36;;;;;;;2.50;0.50;;;16.10;99.90;;;;;;5099740;28;20443;-88
2022/04/07 14:39:05;;;;;;;2.67;0.80;;;16.10;99.90;;;;;;5114967;28;20455;-87
2022/04/07 14:41:33;;;;;;;2.60;0.70;;;16.20;99.90;;;;;;5115849;28;20426;-87
2022/04/07 14:44:02;;;;;;;2.37;0.70;;;16.20;99.90;;;;;;5117720;28;20447;-88
2022/04/07 14:46:30;;;;;;;5.03;0.80;;;16.20;99.90;;;;;;5118244;28;20446;-87
2022/04/07 14:48:57;;;;;;;2.40;0.70;;;16.20;99.90;;;;;;5115705;28;20573;-89
2022/04/07 14:51:24;;;;;;;2.80;0.83;;;16.30;99.90;;;;;;5108874;28;20462;-89
2022/04/07 14:53:51;;;;;;;2.30;0.50;;;16.40;99.90;;;;;;5107618;28;20474;-90
2022/04/07 14:56:18;;;;;;;3.13;0.50;;;16.50;99.90;;;;;;5106967;28;20425;-89
2022/04/07 14:58:46;;;;;;;3.30;0.90;;;16.40;99.90;;;;;;5102518;28;20480;-89
2022/04/07 15:01:16;;;;;;;2.40;0.50;;;16.30;99.90;;;;;;5100461;28;20454;-87
2022/04/07 15:03:45;;;;;;;5.90;0.90;;;16.40;99.90;;;;;;5099185;28;20462;-88
2022/04/07 15:06:14;;;;;;;2.80;0.70;;;16.40;99.90;;;;;;5098955;28;20546;-88
2022/04/07 15:08:41;;;;;;;3.17;0.73;;;16.40;99.90;;;;;;5099473;28;20406;-88
2022/04/07 15:11:10;;;;;;;2.70;0.70;;;16.70;99.90;;;;;;5100083;28;20537;-88
2022/04/07 15:13:38;;;;;;;2.90;0.70;;;16.90;99.90;;;;;;5099703;28;20428;-87
2022/04/07 15:16:14;;;;;;;2.30;0.50;;;17.00;99.60;;;;;;5098959;28;20864;-89
2022/04/07 15:18:45;;;;;;;2.43;0.53;;;17.00;99.60;;;;;;5112491;28;20434;-88
2022/04/07 15:21:14;;;;;;;2.30;0.57;;;16.80;99.50;;;;;;5117191;28;20454;-87
2022/04/07 15:23:41;;;;;;;2.30;0.60;;;16.60;99.70;;;;;;5116840;28;20471;-89
2022/04/07 15:26:08;;;;;;;2.40;0.60;;;16.50;99.90;;;;;;5111960;28;20442;-89
2022/04/07 15:28:35;;;;;;;2.97;0.67;;;16.50;99.90;;;;;;5104157;28;20433;-89
2022/04/07 15:31:10;;;;;;;2.50;0.60;;;16.50;99.90;;;;;;5100543;28;20490;-87
2022/04/07 15:33:37;;;;;;;2.20;0.50;;;16.40;99.90;;;;;;5100006;28;20423;-88
2022/04/07 15:36:06;;;;;;;2.50;0.70;;;16.20;99.90;;;;;;5098785;28;20475;-87
2022/04/07 15:38:38;;;;;;;2.50;0.60;;;16.10;99.90;;;;;;5099417;28;20414;-88
2022/04/07 15:41:08;;;;;;;2.40;0.60;;;15.90;99.90;;;;;;5100571;28;20445;-88
2022/04/07 15:43:44;;;;;;;4.40;0.90;;;15.80;99.90;;;;;;5106102;28;20838;-88
2022/04/07 15:46:11;;;;;;;3.07;0.70;;;15.70;99.90;;;;;;5101948;28;20848;-87
2022/04/07 15:48:39;;;;;;;2.53;0.70;;;15.50;99.90;;;;;;5102730;28;20435;-87
2022/04/07 15:51:10;;;;;;;2.50;0.80;;;15.40;99.90;;;;;;5101752;28;20520;-87
2022/04/07 15:53:38;;;;;;;4.43;1.20;;;15.40;99.90;;;;;;5099983;28;20859;-87
2022/04/07 15:56:06;;;;;;;3.47;1.20;;;15.50;99.90;;;;;;5108333;28;20421;-87
2022/04/07 15:58:33;;;;;;;2.90;0.90;;;15.50;99.90;;;;;;5100886;28;20504;-88
2022/04/07 16:01:02;;;;;;;2.87;0.80;;;15.40;99.90;;;;;;5103107;28;20491;-87
2022/04/07 16:03:29;;;;;;;2.50;0.67;;;15.30;99.90;;;;;;5107305;28;20437;-87
2022/04/07 16:05:59;;;;;;;2.40;0.70;;;15.20;99.90;;;;;;5105771;28;20501;-87
2022/04/07 16:08:25;;;;;;;2.70;0.80;;;15.20;99.90;;;;;;5100397;28;20429;-87
2022/04/07 16:10:56;;;;;;;4.60;1.10;;;15.20;99.90;;;;;;5098984;28;20500;-87
2022/04/07 16:13:23;;;;;;;2.53;0.73;;;15.00;99.90;;;;;;5105001;28;20459;-87
2022/04/07 16:15:52;;;;;;;5.00;1.10;;;14.80;99.90;;;;;;5106540;28;20418;-88
2022/04/07 16:18:19;;;;;;;2.90;0.90;;;14.70;99.90;;;;;;5106619;28;20482;-89
2022/04/07 16:20:49;;;;;;;3.50;1.13;;;14.60;99.90;;;;;;5114382;28;20459;-89
2022/04/07 16:23:25;;;;;;;3.57;1.00;;;14.50;99.90;;;;;;5114207;28;20496;-88
2022/04/07 16:25:53;;;;;;;3.90;0.93;;;14.30;99.90;;;;;;5113558;28;20446;-88
2022/04/07 16:28:25;;;;;;;6.97;1.20;;;14.30;99.90;;;;;;5103207;28;20426;-88
2022/04/07 16:30:52;;;;;;;14.13;1.30;;;14.20;99.90;;;;;;5100003;28;20514;-88
2022/04/07 16:33:24;;;;;;;3.43;1.10;;;14.10;99.90;;;;;;5098719;28;20438;-86
2022/04/07 16:35:52;;;;;;;3.37;1.17;;;14.10;99.90;;;;;;5099367;28;20474;-89
2022/04/07 16:38:19;;;;;;;3.23;1.13;;;14.00;99.90;;;;;;5101231;28;20454;-87
2022/04/07 16:40:52;;;;;;;4.47;1.60;;;14.00;99.90;;;;;;5112449;28;20442;-89
2022/04/07 16:43:20;;;;;;;3.90;1.20;;;13.80;99.90;;;;;;5109913;28;20440;-89
2022/04/07 16:45:47;;;;;;;2.50;0.87;;;13.80;99.90;;;;;;5110168;28;20421;-88
2022/04/07 16:48:17;;;;;;;5.50;1.33;;;13.70;99.90;;;;;;5112694;28;20455;-88
2022/04/07 16:50:44;;;;;;;5.10;1.07;;;13.70;99.90;;;;;;5102129;28;20457;-88
2022/04/07 16:53:11;;;;;;;3.70;1.40;;;13.60;99.90;;;;;;5113531;28;20421;-88
2022/04/07 16:55:39;;;;;;;4.50;1.17;;;13.70;99.90;;;;;;5114960;28;20453;-87
2022/04/07 16:58:08;;;;;;;3.57;1.20;;;13.60;99.90;;;;;;5099081;28;20451;-88
2022/04/07 17:00:37;;;;;;;4.27;1.13;;;13.60;99.90;;;;;;5096617;28;20493;-87
2022/04/07 17:03:05;;;;;;;3.17;1.30;;;13.70;99.90;;;;;;5097802;28;20488;-88
2022/04/07 17:05:32;;;;;;;2.67;0.90;;;13.70;99.90;;;;;;5104494;28;20724;-87
2022/04/07 17:07:59;;;;;;;2.80;0.70;;;13.70;99.90;;;;;;5144758;22;20494;-88
2022/04/07 17:10:28;;;;;;;3.87;1.33;;;13.70;99.90;;;;;;5101606;28;20566;-88
2022/04/07 17:13:04;;;;;;;4.30;0.90;;;13.80;99.90;;;;;;5105662;28;20432;-87
2022/04/07 17:15:46;;;;;;;3.60;1.33;;;13.80;99.90;;;;;;5104641;28;20477;-87
2022/04/07 17:18:14;;;;;;;5.40;2.67;;;13.90;99.90;;;;;;5114010;28;21023;-88
2022/04/07 17:20:49;;;;;;;4.17;1.50;;;13.80;99.90;;;;;;5115572;28;20423;-89
2022/04/07 17:29:37;;;;;;;4.10;1.33;;;13.70;99.90;;;;;;5154803;22;20472;-89
2022/04/07 17:35:02;;;;;;;4.43;1.30;;;13.60;99.90;;;;;;5104448;28;20431;-87
2022/04/07 17:38:13;;;;;;;3.60;1.30;;;13.60;99.90;;;;;;5108723;28;20507;-86
2022/04/07 17:41:15;;;;;;;4.13;1.60;;;13.60;99.90;;;;;;5078235;28;20428;-86
2022/04/07 17:49:54;;;;;;;3.10;0.73;;;13.40;99.90;;;;;;5101889;28;20555;-87
2022/04/07 17:52:41;;;;;;;3.10;1.20;;;13.40;99.90;;;;;;5105688;28;20417;-87
2022/04/07 17:55:34;;;;;;;3.00;1.10;;;13.50;99.90;;;;;;5105939;28;20506;-88
2022/04/07 18:00:59;;;;;;;3.67;0.90;;;13.30;99.90;;;;;;5098485;28;20810;-87
2022/04/07 18:03:27;;;;;;;4.10;1.17;;;13.30;99.90;;;;;;5104693;28;20923;-87
2022/04/07 18:05:59;;;;;;;2.60;0.90;;;13.20;99.90;;;;;;5105406;28;20544;-87
2022/04/07 18:08:26;;;;;;;3.40;1.20;;;13.10;99.90;;;;;;5114234;28;20477;-87
2022/04/07 18:10:53;;;;;;;9.80;1.47;;;13.10;99.90;;;;;;5111899;28;20533;-87
2022/04/07 18:13:22;;;;;;;4.30;1.30;;;13.10;99.90;;;;;;5108108;28;20432;-86
2022/04/07 18:15:49;;;;;;;2.87;1.10;;;13.10;99.90;;;;;;5110756;28;20459;-86
2022/04/07 18:18:47;;;;;;;3.10;1.20;;;13.10;99.90;;;;;;5118588;28;20458;-88
2022/04/07 18:21:21;;;;;;;3.20;1.17;;;13.00;99.90;;;;;;5111496;28;20502;-87
2022/04/07 18:23:54;;;;;;;3.87;1.30;;;13.00;99.90;;;;;;5107230;28;20431;-86
2022/04/07 18:26:22;;;;;;;4.67;1.53;;;13.00;99.90;;;;;;5107671;28;20419;-86
2022/04/07 18:29:02;;;;;;;4.07;1.40;;;12.90;99.90;;;;;;5106489;28;20494;-86
2022/04/07 18:31:39;;;;;;;3.10;1.07;;;12.90;99.90;;;;;;5103457;28;20568;-86
2022/04/07 18:34:28;;;;;;;3.40;1.30;;;12.90;99.90;;;;;;5104500;28;20454;-86
2022/04/07 18:36:56;;;;;;;5.30;1.90;;;12.80;99.90;;;;;;5105393;28;20429;-87
2022/04/07 18:39:27;;;;;;;3.40;1.10;;;12.90;99.90;;;;;;5105142;28;20454;-88
2022/04/07 18:42:04;;;;;;;3.90;1.40;;;12.90;99.90;;;;;;5106686;28;20458;-87
2022/04/07 18:44:33;;;;;;;2.83;0.90;;;12.90;99.90;;;;;;5114635;28;20406;-87
2022/04/07 18:47:01;;;;;;;4.60;1.77;;;12.80;99.90;;;;;;5111792;28;20451;-88
2022/04/07 18:49:28;;;;;;;4.90;1.20;;;12.80;99.90;;;;;;5114966;28;20604;-87
2022/04/07 18:51:56;;;;;;;4.10;1.47;;;12.80;99.90;;;;;;5105931;28;20995;-86